sensor_id;sensor_type;location;lat;lon;timestamp;P1;durP1;ratioP1;P2;durP2;ratioP2
54428;SDS011;40337;52.978;6.310;2022-10-16T00:01:10;8.27;;;2.30;;
54428;SDS011;40337;52.978;6.310;2022-10-16T00:03:38;7.35;;;2.35;;
54428;SDS011;40337;52.978;6.310;2022-10-16T00:06:04;9.77;;;2.55;;
54428;SDS011;40337;52.978;6.310;2022-10-16T00:08:31;6.45;;;2.40;;
54428;SDS011;40337;52.978;6.310;2022-10-16T00:11:00;8.48;;;2.20;;
54428;SDS011;40337;52.978;6.310;2022-10-16T00:13:28;4.88;;;2.20;;
54428;SDS011;40337;52.978;6.310;2022-10-16T00:15:57;7.30;;;2.30;;
54428;SDS011;40337;52.978;6.310;2022-10-16T00:18:23;5.93;;;2.30;;
54428;SDS011;40337;52.978;6.310;2022-10-16T00:20:50;6.03;;;2.05;;
54428;SDS011;40337;52.978;6.310;2022-10-16T00:23:16;6.80;;;2.15;;
54428;SDS011;40337;52.978;6.310;2022-10-16T00:25:41;6.13;;;2.10;;
54428;SDS011;40337;52.978;6.310;2022-10-16T00:28:07;5.18;;;1.95;;
54428;SDS011;40337;52.978;6.310;2022-10-16T00:30:32;5.82;;;2.13;;
54428;SDS011;40337;52.978;6.310;2022-10-16T00:32:58;5.82;;;2.13;;
54428;SDS011;40337;52.978;6.310;2022-10-16T00:35:23;4.82;;;2.10;;
54428;SDS011;40337;52.978;6.310;2022-10-16T00:37:49;5.10;;;2.17;;
54428;SDS011;40337;52.978;6.310;2022-10-16T00:40:14;6.85;;;1.98;;
54428;SDS011;40337;52.978;6.310;2022-10-16T00:42:40;9.48;;;2.03;;
54428;SDS011;40337;52.978;6.310;2022-10-16T00:45:07;5.78;;;2.10;;
54428;SDS011;40337;52.978;6.310;2022-10-16T00:47:34;6.63;;;2.15;;
54428;SDS011;40337;52.978;6.310;2022-10-16T00:52:55;4.28;;;2.08;;
54428;SDS011;40337;52.978;6.310;2022-10-16T00:55:22;6.70;;;2.15;;
54428;SDS011;40337;52.978;6.310;2022-10-16T00:57:48;5.20;;;2.00;;
54428;SDS011;40337;52.978;6.310;2022-10-16T01:00:17;7.97;;;1.95;;
54428;SDS011;40337;52.978;6.310;2022-10-16T01:02:52;5.65;;;2.10;;
54428;SDS011;40337;52.978;6.310;2022-10-16T01:05:21;5.22;;;2.00;;
54428;SDS011;40337;52.978;6.310;2022-10-16T01:07:53;4.97;;;1.90;;
54428;SDS011;40337;52.978;6.310;2022-10-16T01:10:40;6.00;;;2.10;;
54428;SDS011;40337;52.978;6.310;2022-10-16T01:13:32;5.53;;;1.95;;
54428;SDS011;40337;52.978;6.310;2022-10-16T01:16:13;5.20;;;2.25;;
54428;SDS011;40337;52.978;6.310;2022-10-16T01:18:48;5.30;;;2.00;;
54428;SDS011;40337;52.978;6.310;2022-10-16T01:21:22;6.60;;;2.28;;
54428;SDS011;40337;52.978;6.310;2022-10-16T01:23:57;4.97;;;2.10;;
54428;SDS011;40337;52.978;6.310;2022-10-16T01:26:41;6.00;;;2.25;;
54428;SDS011;40337;52.978;6.310;2022-10-16T01:29:20;5.45;;;2.20;;
54428;SDS011;40337;52.978;6.310;2022-10-16T01:31:54;6.28;;;1.95;;
54428;SDS011;40337;52.978;6.310;2022-10-16T01:34:35;4.57;;;1.80;;
54428;SDS011;40337;52.978;6.310;2022-10-16T01:37:12;6.68;;;2.22;;
54428;SDS011;40337;52.978;6.310;2022-10-16T01:39:41;4.32;;;1.85;;
54428;SDS011;40337;52.978;6.310;2022-10-16T01:42:24;4.93;;;2.25;;
54428;SDS011;40337;52.978;6.310;2022-10-16T01:44:56;5.78;;;1.70;;
54428;SDS011;40337;52.978;6.310;2022-10-16T01:47:24;5.75;;;1.88;;
54428;SDS011;40337;52.978;6.310;2022-10-16T01:49:51;5.53;;;1.95;;
54428;SDS011;40337;52.978;6.310;2022-10-16T01:52:20;5.13;;;1.85;;
54428;SDS011;40337;52.978;6.310;2022-10-16T01:54:50;3.90;;;1.77;;
54428;SDS011;40337;52.978;6.310;2022-10-16T01:57:19;5.97;;;1.80;;
54428;SDS011;40337;52.978;6.310;2022-10-16T01:59:48;6.65;;;2.15;;
54428;SDS011;40337;52.978;6.310;2022-10-16T02:02:17;5.60;;;1.80;;
54428;SDS011;40337;52.978;6.310;2022-10-16T02:04:48;5.13;;;1.88;;
54428;SDS011;40337;52.978;6.310;2022-10-16T02:07:18;6.25;;;1.90;;
54428;SDS011;40337;52.978;6.310;2022-10-16T02:09:43;4.18;;;2.00;;
54428;SDS011;40337;52.978;6.310;2022-10-16T02:12:13;6.35;;;1.95;;
54428;SDS011;40337;52.978;6.310;2022-10-16T02:14:47;3.55;;;1.90;;
54428;SDS011;40337;52.978;6.310;2022-10-16T02:17:14;3.97;;;1.75;;
54428;SDS011;40337;52.978;6.310;2022-10-16T02:19:41;5.95;;;1.90;;
54428;SDS011;40337;52.978;6.310;2022-10-16T02:22:09;4.72;;;1.70;;
54428;SDS011;40337;52.978;6.310;2022-10-16T02:25:01;4.05;;;1.88;;
54428;SDS011;40337;52.978;6.310;2022-10-16T02:27:39;5.53;;;1.70;;
54428;SDS011;40337;52.978;6.310;2022-10-16T02:30:31;3.95;;;2.08;;
54428;SDS011;40337;52.978;6.310;2022-10-16T02:33:07;5.40;;;2.00;;
54428;SDS011;40337;52.978;6.310;2022-10-16T02:35:36;7.10;;;2.17;;
54428;SDS011;40337;52.978;6.310;2022-10-16T02:38:03;4.85;;;1.90;;
54428;SDS011;40337;52.978;6.310;2022-10-16T02:40:30;4.05;;;1.88;;
54428;SDS011;40337;52.978;6.310;2022-10-16T02:42:56;5.35;;;1.90;;
54428;SDS011;40337;52.978;6.310;2022-10-16T02:45:22;6.65;;;1.90;;
54428;SDS011;40337;52.978;6.310;2022-10-16T02:47:48;5.47;;;2.28;;
54428;SDS011;40337;52.978;6.310;2022-10-16T02:50:14;5.55;;;2.20;;
54428;SDS011;40337;52.978;6.310;2022-10-16T02:52:40;5.68;;;2.17;;
54428;SDS011;40337;52.978;6.310;2022-10-16T02:55:06;5.25;;;2.55;;
54428;SDS011;40337;52.978;6.310;2022-10-16T02:57:32;4.35;;;1.80;;
54428;SDS011;40337;52.978;6.310;2022-10-16T02:59:58;5.55;;;1.80;;
54428;SDS011;40337;52.978;6.310;2022-10-16T03:02:23;3.22;;;1.98;;
54428;SDS011;40337;52.978;6.310;2022-10-16T03:04:49;5.30;;;1.92;;
54428;SDS011;40337;52.978;6.310;2022-10-16T03:07:15;6.72;;;2.15;;
54428;SDS011;40337;52.978;6.310;2022-10-16T03:09:41;7.30;;;2.30;;
54428;SDS011;40337;52.978;6.310;2022-10-16T03:12:06;5.47;;;2.10;;
54428;SDS011;40337;52.978;6.310;2022-10-16T03:14:32;5.60;;;2.00;;
54428;SDS011;40337;52.978;6.310;2022-10-16T03:16:58;5.05;;;2.00;;
54428;SDS011;40337;52.978;6.310;2022-10-16T03:19:24;4.05;;;1.80;;
54428;SDS011;40337;52.978;6.310;2022-10-16T03:21:49;4.05;;;2.00;;
54428;SDS011;40337;52.978;6.310;2022-10-16T03:24:15;4.50;;;2.03;;
54428;SDS011;40337;52.978;6.310;2022-10-16T03:26:40;4.05;;;2.00;;
54428;SDS011;40337;52.978;6.310;2022-10-16T03:29:06;4.57;;;1.95;;
54428;SDS011;40337;52.978;6.310;2022-10-16T03:31:32;4.38;;;2.00;;
54428;SDS011;40337;52.978;6.310;2022-10-16T03:33:57;4.97;;;2.00;;
54428;SDS011;40337;52.978;6.310;2022-10-16T03:36:23;4.68;;;2.15;;
54428;SDS011;40337;52.978;6.310;2022-10-16T03:38:48;6.28;;;2.22;;
54428;SDS011;40337;52.978;6.310;2022-10-16T03:41:14;3.92;;;1.90;;
54428;SDS011;40337;52.978;6.310;2022-10-16T03:43:40;5.63;;;2.30;;
54428;SDS011;40337;52.978;6.310;2022-10-16T03:46:05;6.60;;;2.10;;
54428;SDS011;40337;52.978;6.310;2022-10-16T03:48:31;4.70;;;2.00;;
54428;SDS011;40337;52.978;6.310;2022-10-16T03:50:57;3.92;;;2.00;;
54428;SDS011;40337;52.978;6.310;2022-10-16T03:53:23;6.45;;;2.30;;
54428;SDS011;40337;52.978;6.310;2022-10-16T03:55:49;3.97;;;1.88;;
54428;SDS011;40337;52.978;6.310;2022-10-16T03:58:14;5.90;;;2.10;;
54428;SDS011;40337;52.978;6.310;2022-10-16T04:00:41;4.30;;;1.90;;
54428;SDS011;40337;52.978;6.310;2022-10-16T04:03:07;4.40;;;1.98;;
54428;SDS011;40337;52.978;6.310;2022-10-16T04:05:33;6.32;;;2.00;;
54428;SDS011;40337;52.978;6.310;2022-10-16T04:07:59;3.63;;;2.10;;
54428;SDS011;40337;52.978;6.310;2022-10-16T04:10:24;5.70;;;2.10;;
54428;SDS011;40337;52.978;6.310;2022-10-16T04:12:50;5.15;;;2.10;;
54428;SDS011;40337;52.978;6.310;2022-10-16T04:15:15;5.50;;;2.40;;
54428;SDS011;40337;52.978;6.310;2022-10-16T04:17:41;5.40;;;2.10;;
54428;SDS011;40337;52.978;6.310;2022-10-16T04:20:06;4.22;;;2.15;;
54428;SDS011;40337;52.978;6.310;2022-10-16T04:22:32;6.53;;;2.60;;
54428;SDS011;40337;52.978;6.310;2022-10-16T04:24:58;4.22;;;2.13;;
54428;SDS011;40337;52.978;6.310;2022-10-16T04:27:23;4.45;;;2.15;;
54428;SDS011;40337;52.978;6.310;2022-10-16T04:29:49;5.97;;;2.33;;
54428;SDS011;40337;52.978;6.310;2022-10-16T04:32:14;4.25;;;2.15;;
54428;SDS011;40337;52.978;6.310;2022-10-16T04:34:40;4.95;;;2.20;;
54428;SDS011;40337;52.978;6.310;2022-10-16T04:37:06;4.22;;;2.15;;
54428;SDS011;40337;52.978;6.310;2022-10-16T04:39:32;5.35;;;2.42;;
54428;SDS011;40337;52.978;6.310;2022-10-16T04:41:57;6.28;;;2.30;;
54428;SDS011;40337;52.978;6.310;2022-10-16T04:44:23;4.95;;;2.53;;
54428;SDS011;40337;52.978;6.310;2022-10-16T04:46:51;5.82;;;2.63;;
54428;SDS011;40337;52.978;6.310;2022-10-16T04:49:17;4.30;;;2.30;;
54428;SDS011;40337;52.978;6.310;2022-10-16T04:51:42;4.28;;;2.30;;
54428;SDS011;40337;52.978;6.310;2022-10-16T04:54:08;4.68;;;2.33;;
54428;SDS011;40337;52.978;6.310;2022-10-16T04:56:34;4.50;;;2.50;;
54428;SDS011;40337;52.978;6.310;2022-10-16T04:59:07;4.88;;;2.53;;
54428;SDS011;40337;52.978;6.310;2022-10-16T05:01:33;5.47;;;2.50;;
54428;SDS011;40337;52.978;6.310;2022-10-16T05:03:59;5.30;;;2.45;;
54428;SDS011;40337;52.978;6.310;2022-10-16T05:06:24;4.88;;;2.65;;
54428;SDS011;40337;52.978;6.310;2022-10-16T05:08:50;4.72;;;2.80;;
54428;SDS011;40337;52.978;6.310;2022-10-16T05:11:15;5.47;;;2.83;;
54428;SDS011;40337;52.978;6.310;2022-10-16T05:13:41;5.68;;;2.80;;
54428;SDS011;40337;52.978;6.310;2022-10-16T05:16:06;5.88;;;3.22;;
54428;SDS011;40337;52.978;6.310;2022-10-16T05:18:32;4.78;;;2.90;;
54428;SDS011;40337;52.978;6.310;2022-10-16T05:20:58;6.95;;;3.00;;
54428;SDS011;40337;52.978;6.310;2022-10-16T05:23:23;6.53;;;3.03;;
54428;SDS011;40337;52.978;6.310;2022-10-16T05:25:55;8.13;;;3.05;;
54428;SDS011;40337;52.978;6.310;2022-10-16T05:28:23;4.60;;;2.88;;
54428;SDS011;40337;52.978;6.310;2022-10-16T05:30:49;6.50;;;3.08;;
54428;SDS011;40337;52.978;6.310;2022-10-16T05:33:15;6.38;;;2.80;;
54428;SDS011;40337;52.978;6.310;2022-10-16T05:35:41;5.75;;;3.20;;
54428;SDS011;40337;52.978;6.310;2022-10-16T05:38:07;6.75;;;2.92;;
54428;SDS011;40337;52.978;6.310;2022-10-16T05:40:32;7.53;;;3.22;;
54428;SDS011;40337;52.978;6.310;2022-10-16T05:42:58;5.88;;;3.05;;
54428;SDS011;40337;52.978;6.310;2022-10-16T05:45:23;8.32;;;3.10;;
54428;SDS011;40337;52.978;6.310;2022-10-16T05:47:49;5.57;;;3.10;;
54428;SDS011;40337;52.978;6.310;2022-10-16T05:50:15;4.95;;;3.30;;
54428;SDS011;40337;52.978;6.310;2022-10-16T05:52:40;6.05;;;3.30;;
54428;SDS011;40337;52.978;6.310;2022-10-16T05:55:06;6.45;;;3.15;;
54428;SDS011;40337;52.978;6.310;2022-10-16T05:57:32;7.03;;;3.45;;
54428;SDS011;40337;52.978;6.310;2022-10-16T05:59:57;6.60;;;3.25;;
54428;SDS011;40337;52.978;6.310;2022-10-16T06:02:23;5.00;;;3.22;;
54428;SDS011;40337;52.978;6.310;2022-10-16T06:04:49;5.07;;;3.05;;
54428;SDS011;40337;52.978;6.310;2022-10-16T06:07:16;5.57;;;3.13;;
54428;SDS011;40337;52.978;6.310;2022-10-16T06:09:41;6.22;;;3.20;;
54428;SDS011;40337;52.978;6.310;2022-10-16T06:12:07;6.00;;;3.13;;
54428;SDS011;40337;52.978;6.310;2022-10-16T06:14:32;6.80;;;3.53;;
54428;SDS011;40337;52.978;6.310;2022-10-16T06:16:58;6.53;;;3.55;;
54428;SDS011;40337;52.978;6.310;2022-10-16T06:19:23;6.28;;;3.67;;
54428;SDS011;40337;52.978;6.310;2022-10-16T06:21:49;5.60;;;3.40;;
54428;SDS011;40337;52.978;6.310;2022-10-16T06:24:15;5.53;;;3.50;;
54428;SDS011;40337;52.978;6.310;2022-10-16T06:26:40;9.85;;;3.08;;
54428;SDS011;40337;52.978;6.310;2022-10-16T06:29:06;7.28;;;3.33;;
54428;SDS011;40337;52.978;6.310;2022-10-16T06:31:33;5.68;;;3.15;;
54428;SDS011;40337;52.978;6.310;2022-10-16T06:33:58;6.18;;;3.17;;
54428;SDS011;40337;52.978;6.310;2022-10-16T06:36:25;6.20;;;3.15;;
54428;SDS011;40337;52.978;6.310;2022-10-16T06:38:51;4.47;;;3.00;;
54428;SDS011;40337;52.978;6.310;2022-10-16T06:41:18;6.78;;;2.95;;
54428;SDS011;40337;52.978;6.310;2022-10-16T06:43:45;5.57;;;3.17;;
54428;SDS011;40337;52.978;6.310;2022-10-16T06:46:12;5.85;;;2.80;;
54428;SDS011;40337;52.978;6.310;2022-10-16T06:48:38;5.25;;;3.05;;
54428;SDS011;40337;52.978;6.310;2022-10-16T06:51:05;8.20;;;3.10;;
54428;SDS011;40337;52.978;6.310;2022-10-16T06:53:32;5.57;;;3.00;;
54428;SDS011;40337;52.978;6.310;2022-10-16T06:56:06;5.20;;;2.85;;
54428;SDS011;40337;52.978;6.310;2022-10-16T06:58:42;7.90;;;2.90;;
54428;SDS011;40337;52.978;6.310;2022-10-16T07:01:08;5.75;;;3.08;;
54428;SDS011;40337;52.978;6.310;2022-10-16T07:03:38;6.80;;;3.20;;
54428;SDS011;40337;52.978;6.310;2022-10-16T07:06:06;5.28;;;3.00;;
54428;SDS011;40337;52.978;6.310;2022-10-16T07:08:37;5.90;;;3.28;;
54428;SDS011;40337;52.978;6.310;2022-10-16T07:11:05;4.53;;;2.78;;
54428;SDS011;40337;52.978;6.310;2022-10-16T07:13:33;6.35;;;2.97;;
54428;SDS011;40337;52.978;6.310;2022-10-16T07:16:06;4.25;;;2.83;;
54428;SDS011;40337;52.978;6.310;2022-10-16T07:18:33;7.90;;;3.22;;
54428;SDS011;40337;52.978;6.310;2022-10-16T07:21:03;5.35;;;3.10;;
54428;SDS011;40337;52.978;6.310;2022-10-16T07:23:29;4.43;;;3.00;;
54428;SDS011;40337;52.978;6.310;2022-10-16T07:25:55;6.57;;;3.15;;
54428;SDS011;40337;52.978;6.310;2022-10-16T07:28:20;7.13;;;2.70;;
54428;SDS011;40337;52.978;6.310;2022-10-16T07:30:46;5.13;;;2.80;;
54428;SDS011;40337;52.978;6.310;2022-10-16T07:33:12;7.80;;;3.03;;
54428;SDS011;40337;52.978;6.310;2022-10-16T07:35:41;5.97;;;2.97;;
54428;SDS011;40337;52.978;6.310;2022-10-16T07:38:13;5.03;;;2.83;;
54428;SDS011;40337;52.978;6.310;2022-10-16T07:40:38;5.88;;;2.47;;
54428;SDS011;40337;52.978;6.310;2022-10-16T07:43:04;4.45;;;2.63;;
54428;SDS011;40337;52.978;6.310;2022-10-16T07:45:30;5.35;;;2.67;;
54428;SDS011;40337;52.978;6.310;2022-10-16T07:47:55;5.75;;;2.75;;
54428;SDS011;40337;52.978;6.310;2022-10-16T07:50:21;5.75;;;2.53;;
54428;SDS011;40337;52.978;6.310;2022-10-16T07:52:46;7.63;;;2.75;;
54428;SDS011;40337;52.978;6.310;2022-10-16T07:55:12;5.28;;;2.60;;
54428;SDS011;40337;52.978;6.310;2022-10-16T07:57:38;6.72;;;2.42;;
54428;SDS011;40337;52.978;6.310;2022-10-16T08:00:03;6.80;;;2.25;;
54428;SDS011;40337;52.978;6.310;2022-10-16T08:02:30;7.57;;;2.30;;
54428;SDS011;40337;52.978;6.310;2022-10-16T08:04:56;5.57;;;2.28;;
54428;SDS011;40337;52.978;6.310;2022-10-16T08:07:22;5.97;;;1.90;;
54428;SDS011;40337;52.978;6.310;2022-10-16T08:09:50;5.95;;;1.80;;
54428;SDS011;40337;52.978;6.310;2022-10-16T08:12:16;5.85;;;1.73;;
54428;SDS011;40337;52.978;6.310;2022-10-16T08:14:42;6.28;;;2.05;;
54428;SDS011;40337;52.978;6.310;2022-10-16T08:17:08;5.47;;;1.73;;
54428;SDS011;40337;52.978;6.310;2022-10-16T08:19:33;4.15;;;1.70;;
54428;SDS011;40337;52.978;6.310;2022-10-16T08:21:59;4.78;;;1.70;;
54428;SDS011;40337;52.978;6.310;2022-10-16T08:24:25;5.55;;;1.67;;
54428;SDS011;40337;52.978;6.310;2022-10-16T08:26:53;4.75;;;1.75;;
54428;SDS011;40337;52.978;6.310;2022-10-16T08:29:19;7.72;;;2.00;;
54428;SDS011;40337;52.978;6.310;2022-10-16T08:31:45;5.20;;;1.95;;
54428;SDS011;40337;52.978;6.310;2022-10-16T08:34:10;4.40;;;1.70;;
54428;SDS011;40337;52.978;6.310;2022-10-16T08:36:36;5.72;;;1.85;;
54428;SDS011;40337;52.978;6.310;2022-10-16T08:39:01;5.50;;;1.80;;
54428;SDS011;40337;52.978;6.310;2022-10-16T08:49:57;5.47;;;1.90;;
54428;SDS011;40337;52.978;6.310;2022-10-16T08:52:29;5.80;;;2.00;;
54428;SDS011;40337;52.978;6.310;2022-10-16T08:54:57;8.90;;;2.40;;
54428;SDS011;40337;52.978;6.310;2022-10-16T08:57:24;4.70;;;2.15;;
54428;SDS011;40337;52.978;6.310;2022-10-16T08:59:54;5.47;;;2.20;;
54428;SDS011;40337;52.978;6.310;2022-10-16T09:02:32;5.97;;;2.38;;
54428;SDS011;40337;52.978;6.310;2022-10-16T09:10:55;6.60;;;2.28;;
54428;SDS011;40337;52.978;6.310;2022-10-16T09:21:40;7.32;;;2.30;;
54428;SDS011;40337;52.978;6.310;2022-10-16T09:24:13;7.97;;;2.40;;
54428;SDS011;40337;52.978;6.310;2022-10-16T09:26:41;7.40;;;2.40;;
54428;SDS011;40337;52.978;6.310;2022-10-16T09:29:10;7.05;;;2.10;;
54428;SDS011;40337;52.978;6.310;2022-10-16T09:31:37;9.25;;;2.13;;
54428;SDS011;40337;52.978;6.310;2022-10-16T09:34:03;6.93;;;2.10;;
54428;SDS011;40337;52.978;6.310;2022-10-16T09:36:35;8.52;;;2.28;;
54428;SDS011;40337;52.978;6.310;2022-10-16T09:39:10;8.43;;;2.55;;
54428;SDS011;40337;52.978;6.310;2022-10-16T09:41:37;9.32;;;2.25;;
54428;SDS011;40337;52.978;6.310;2022-10-16T09:44:12;9.60;;;2.17;;
54428;SDS011;40337;52.978;6.310;2022-10-16T09:46:46;8.30;;;1.98;;
54428;SDS011;40337;52.978;6.310;2022-10-16T09:49:22;9.05;;;2.30;;
54428;SDS011;40337;52.978;6.310;2022-10-16T09:51:49;8.43;;;2.47;;
54428;SDS011;40337;52.978;6.310;2022-10-16T09:54:19;7.93;;;2.20;;
54428;SDS011;40337;52.978;6.310;2022-10-16T09:56:46;8.57;;;2.28;;
54428;SDS011;40337;52.978;6.310;2022-10-16T09:59:20;8.20;;;2.05;;
54428;SDS011;40337;52.978;6.310;2022-10-16T10:01:49;10.38;;;2.17;;
54428;SDS011;40337;52.978;6.310;2022-10-16T10:04:17;10.68;;;2.67;;
54428;SDS011;40337;52.978;6.310;2022-10-16T10:06:50;8.32;;;2.25;;
54428;SDS011;40337;52.978;6.310;2022-10-16T10:12:02;13.43;;;2.58;;
54428;SDS011;40337;52.978;6.310;2022-10-16T10:14:34;6.03;;;1.95;;
54428;SDS011;40337;52.978;6.310;2022-10-16T10:19:36;8.85;;;2.40;;
54428;SDS011;40337;52.978;6.310;2022-10-16T10:24:59;10.32;;;2.10;;
54428;SDS011;40337;52.978;6.310;2022-10-16T10:27:38;7.75;;;2.28;;
54428;SDS011;40337;52.978;6.310;2022-10-16T10:33:03;11.27;;;2.50;;
54428;SDS011;40337;52.978;6.310;2022-10-16T10:47:01;10.95;;;2.90;;
54428;SDS011;40337;52.978;6.310;2022-10-16T10:49:52;9.90;;;2.97;;
54428;SDS011;40337;52.978;6.310;2022-10-16T10:52:39;10.40;;;2.75;;
54428;SDS011;40337;52.978;6.310;2022-10-16T10:55:31;8.10;;;2.58;;
54428;SDS011;40337;52.978;6.310;2022-10-16T10:58:15;11.63;;;2.95;;
54428;SDS011;40337;52.978;6.310;2022-10-16T11:03:42;11.38;;;2.20;;
54428;SDS011;40337;52.978;6.310;2022-10-16T11:06:32;9.30;;;2.20;;
54428;SDS011;40337;52.978;6.310;2022-10-16T11:09:10;11.82;;;2.50;;
54428;SDS011;40337;52.978;6.310;2022-10-16T11:11:52;11.80;;;2.67;;
54428;SDS011;40337;52.978;6.310;2022-10-16T11:14:36;12.65;;;3.03;;
54428;SDS011;40337;52.978;6.310;2022-10-16T11:17:08;10.80;;;2.50;;
54428;SDS011;40337;52.978;6.310;2022-10-16T11:24:58;9.45;;;2.67;;
54428;SDS011;40337;52.978;6.310;2022-10-16T11:27:41;8.25;;;2.50;;
54428;SDS011;40337;52.978;6.310;2022-10-16T11:30:31;8.68;;;2.25;;
54428;SDS011;40337;52.978;6.310;2022-10-16T11:33:08;7.45;;;2.15;;
54428;SDS011;40337;52.978;6.310;2022-10-16T11:44:26;8.07;;;2.10;;
54428;SDS011;40337;52.978;6.310;2022-10-16T11:49:30;11.38;;;2.67;;
54428;SDS011;40337;52.978;6.310;2022-10-16T11:52:00;9.82;;;2.60;;
54428;SDS011;40337;52.978;6.310;2022-10-16T11:54:30;8.57;;;2.25;;
54428;SDS011;40337;52.978;6.310;2022-10-16T11:57:03;9.70;;;2.15;;
54428;SDS011;40337;52.978;6.310;2022-10-16T12:00:24;10.18;;;2.63;;
54428;SDS011;40337;52.978;6.310;2022-10-16T12:02:31;9.05;;;2.60;;
54428;SDS011;40337;52.978;6.310;2022-10-16T12:13:49;9.52;;;2.53;;
54428;SDS011;40337;52.978;6.310;2022-10-16T12:16:03;9.20;;;2.50;;
54428;SDS011;40337;52.978;6.310;2022-10-16T12:18:41;10.80;;;2.47;;
54428;SDS011;40337;52.978;6.310;2022-10-16T12:21:09;7.28;;;2.30;;
54428;SDS011;40337;52.978;6.310;2022-10-16T12:23:48;8.18;;;2.10;;
54428;SDS011;40337;52.978;6.310;2022-10-16T12:26:23;10.15;;;2.72;;
54428;SDS011;40337;52.978;6.310;2022-10-16T12:28:50;8.95;;;2.20;;
54428;SDS011;40337;52.978;6.310;2022-10-16T12:31:16;8.27;;;2.50;;
54428;SDS011;40337;52.978;6.310;2022-10-16T12:36:29;8.52;;;2.60;;
54428;SDS011;40337;52.978;6.310;2022-10-16T12:38:57;9.90;;;2.45;;
54428;SDS011;40337;52.978;6.310;2022-10-16T12:43:50;10.80;;;2.60;;
54428;SDS011;40337;52.978;6.310;2022-10-16T12:48:42;7.57;;;2.10;;
54428;SDS011;40337;52.978;6.310;2022-10-16T12:51:10;9.48;;;2.28;;
54428;SDS011;40337;52.978;6.310;2022-10-16T12:59:43;11.05;;;2.50;;
54428;SDS011;40337;52.978;6.310;2022-10-16T13:11:03;9.68;;;2.55;;
54428;SDS011;40337;52.978;6.310;2022-10-16T13:19:46;8.20;;;2.35;;
54428;SDS011;40337;52.978;6.310;2022-10-16T13:22:24;10.32;;;2.22;;
54428;SDS011;40337;52.978;6.310;2022-10-16T13:25:24;8.20;;;2.10;;
54428;SDS011;40337;52.978;6.310;2022-10-16T13:28:00;9.77;;;2.03;;
54428;SDS011;40337;52.978;6.310;2022-10-16T13:30:39;9.10;;;2.20;;
54428;SDS011;40337;52.978;6.310;2022-10-16T13:35:47;8.60;;;2.10;;
54428;SDS011;40337;52.978;6.310;2022-10-16T13:38:17;9.57;;;2.28;;
54428;SDS011;40337;52.978;6.310;2022-10-16T13:41:18;10.45;;;2.42;;
54428;SDS011;40337;52.978;6.310;2022-10-16T13:43:45;8.93;;;2.25;;
54428;SDS011;40337;52.978;6.310;2022-10-16T13:46:24;6.10;;;2.00;;
54428;SDS011;40337;52.978;6.310;2022-10-16T13:48:57;8.45;;;2.35;;
54428;SDS011;40337;52.978;6.310;2022-10-16T13:51:27;10.38;;;2.38;;
54428;SDS011;40337;52.978;6.310;2022-10-16T13:53:54;8.70;;;2.22;;
54428;SDS011;40337;52.978;6.310;2022-10-16T13:56:22;10.55;;;2.28;;
54428;SDS011;40337;52.978;6.310;2022-10-16T13:58:58;8.68;;;2.35;;
54428;SDS011;40337;52.978;6.310;2022-10-16T14:01:25;10.00;;;2.50;;
54428;SDS011;40337;52.978;6.310;2022-10-16T14:03:59;10.75;;;2.50;;
54428;SDS011;40337;52.978;6.310;2022-10-16T14:06:27;9.48;;;2.33;;
54428;SDS011;40337;52.978;6.310;2022-10-16T14:09:06;8.57;;;2.30;;
54428;SDS011;40337;52.978;6.310;2022-10-16T14:11:55;8.52;;;2.45;;
54428;SDS011;40337;52.978;6.310;2022-10-16T14:14:39;10.40;;;3.10;;
54428;SDS011;40337;52.978;6.310;2022-10-16T14:17:42;9.48;;;2.10;;
54428;SDS011;40337;52.978;6.310;2022-10-16T14:20:02;10.27;;;2.42;;
54428;SDS011;40337;52.978;6.310;2022-10-16T14:25:16;9.15;;;2.30;;
54428;SDS011;40337;52.978;6.310;2022-10-16T14:30:48;9.00;;;2.20;;
54428;SDS011;40337;52.978;6.310;2022-10-16T14:38:38;8.98;;;2.03;;
54428;SDS011;40337;52.978;6.310;2022-10-16T14:41:06;9.82;;;2.10;;
54428;SDS011;40337;52.978;6.310;2022-10-16T14:43:41;9.15;;;2.55;;
54428;SDS011;40337;52.978;6.310;2022-10-16T14:46:15;11.90;;;2.58;;
54428;SDS011;40337;52.978;6.310;2022-10-16T14:48:45;8.98;;;2.33;;
54428;SDS011;40337;52.978;6.310;2022-10-16T14:51:14;9.40;;;2.10;;
54428;SDS011;40337;52.978;6.310;2022-10-16T14:53:41;12.98;;;2.50;;
54428;SDS011;40337;52.978;6.310;2022-10-16T14:56:07;8.70;;;2.40;;
54428;SDS011;40337;52.978;6.310;2022-10-16T14:58:34;9.43;;;2.10;;
54428;SDS011;40337;52.978;6.310;2022-10-16T15:01:00;8.57;;;2.22;;
54428;SDS011;40337;52.978;6.310;2022-10-16T15:03:26;9.05;;;2.10;;
54428;SDS011;40337;52.978;6.310;2022-10-16T15:05:51;8.13;;;2.40;;
54428;SDS011;40337;52.978;6.310;2022-10-16T15:08:17;9.55;;;2.05;;
54428;SDS011;40337;52.978;6.310;2022-10-16T15:10:43;11.52;;;2.70;;
54428;SDS011;40337;52.978;6.310;2022-10-16T15:13:12;9.60;;;2.17;;
54428;SDS011;40337;52.978;6.310;2022-10-16T15:15:43;8.00;;;2.10;;
54428;SDS011;40337;52.978;6.310;2022-10-16T15:18:10;9.05;;;2.30;;
54428;SDS011;40337;52.978;6.310;2022-10-16T15:20:36;12.90;;;2.58;;
54428;SDS011;40337;52.978;6.310;2022-10-16T15:23:13;9.20;;;2.30;;
54428;SDS011;40337;52.978;6.310;2022-10-16T15:28:19;10.63;;;2.25;;
54428;SDS011;40337;52.978;6.310;2022-10-16T15:30:46;9.32;;;2.17;;
54428;SDS011;40337;52.978;6.310;2022-10-16T15:33:16;9.20;;;2.58;;
54428;SDS011;40337;52.978;6.310;2022-10-16T15:35:45;12.13;;;2.50;;
54428;SDS011;40337;52.978;6.310;2022-10-16T15:38:12;10.73;;;2.28;;
54428;SDS011;40337;52.978;6.310;2022-10-16T15:40:38;11.40;;;2.60;;
54428;SDS011;40337;52.978;6.310;2022-10-16T15:43:05;9.48;;;2.47;;
54428;SDS011;40337;52.978;6.310;2022-10-16T15:45:30;8.38;;;2.30;;
54428;SDS011;40337;52.978;6.310;2022-10-16T15:47:56;14.57;;;2.53;;
54428;SDS011;40337;52.978;6.310;2022-10-16T15:50:22;15.43;;;2.90;;
54428;SDS011;40337;52.978;6.310;2022-10-16T15:52:47;12.45;;;2.42;;
54428;SDS011;40337;52.978;6.310;2022-10-16T15:55:14;11.35;;;2.10;;
54428;SDS011;40337;52.978;6.310;2022-10-16T15:57:40;13.55;;;2.70;;
54428;SDS011;40337;52.978;6.310;2022-10-16T16:00:09;10.30;;;2.30;;
54428;SDS011;40337;52.978;6.310;2022-10-16T16:02:37;10.27;;;2.20;;
54428;SDS011;40337;52.978;6.310;2022-10-16T16:05:03;13.73;;;3.00;;
54428;SDS011;40337;52.978;6.310;2022-10-16T16:07:32;10.50;;;2.75;;
54428;SDS011;40337;52.978;6.310;2022-10-16T16:09:59;9.80;;;2.10;;
54428;SDS011;40337;52.978;6.310;2022-10-16T16:12:25;11.57;;;2.47;;
54428;SDS011;40337;52.978;6.310;2022-10-16T16:14:50;11.90;;;2.25;;
54428;SDS011;40337;52.978;6.310;2022-10-16T16:17:16;9.65;;;2.05;;
54428;SDS011;40337;52.978;6.310;2022-10-16T16:19:42;9.40;;;2.20;;
54428;SDS011;40337;52.978;6.310;2022-10-16T16:22:07;11.35;;;2.63;;
54428;SDS011;40337;52.978;6.310;2022-10-16T16:24:33;14.48;;;2.50;;
54428;SDS011;40337;52.978;6.310;2022-10-16T16:26:58;10.82;;;2.50;;
54428;SDS011;40337;52.978;6.310;2022-10-16T16:29:24;10.05;;;2.55;;
54428;SDS011;40337;52.978;6.310;2022-10-16T16:31:49;10.27;;;2.72;;
54428;SDS011;40337;52.978;6.310;2022-10-16T16:34:21;12.50;;;2.55;;
54428;SDS011;40337;52.978;6.310;2022-10-16T16:36:50;12.05;;;2.53;;
54428;SDS011;40337;52.978;6.310;2022-10-16T16:39:16;13.38;;;2.60;;
54428;SDS011;40337;52.978;6.310;2022-10-16T16:41:42;12.73;;;2.53;;
54428;SDS011;40337;52.978;6.310;2022-10-16T16:44:08;10.13;;;2.15;;
54428;SDS011;40337;52.978;6.310;2022-10-16T16:46:35;10.18;;;2.58;;
54428;SDS011;40337;52.978;6.310;2022-10-16T16:49:01;10.00;;;2.70;;
54428;SDS011;40337;52.978;6.310;2022-10-16T16:51:29;11.20;;;2.40;;
54428;SDS011;40337;52.978;6.310;2022-10-16T16:53:54;12.00;;;2.90;;
54428;SDS011;40337;52.978;6.310;2022-10-16T16:56:21;8.32;;;2.22;;
54428;SDS011;40337;52.978;6.310;2022-10-16T16:58:48;9.60;;;2.33;;